sensor_id;sensor_type;location;lat;lon;timestamp;P1;durP1;ratioP1;P2;durP2;ratioP2
25207;SDS011;13153;52.316;21.166;2023-02-14T00:00:16;15.48;;;7.55;;
25207;SDS011;13153;52.316;21.166;2023-02-14T00:02:46;14.35;;;7.05;;
25207;SDS011;13153;52.316;21.166;2023-02-14T00:05:13;11.60;;;6.90;;
25207;SDS011;13153;52.316;21.166;2023-02-14T00:07:39;16.40;;;7.20;;
25207;SDS011;13153;52.316;21.166;2023-02-14T00:10:06;18.85;;;7.53;;
25207;SDS011;13153;52.316;21.166;2023-02-14T00:12:33;17.85;;;7.15;;
25207;SDS011;13153;52.316;21.166;2023-02-14T00:15:00;15.07;;;6.90;;
25207;SDS011;13153;52.316;21.166;2023-02-14T00:17:44;16.13;;;7.25;;
25207;SDS011;13153;52.316;21.166;2023-02-14T00:20:10;14.27;;;6.75;;
25207;SDS011;13153;52.316;21.166;2023-02-14T00:22:36;12.50;;;6.40;;
25207;SDS011;13153;52.316;21.166;2023-02-14T00:25:02;15.27;;;6.80;;
25207;SDS011;13153;52.316;21.166;2023-02-14T00:27:28;17.48;;;6.72;;
25207;SDS011;13153;52.316;21.166;2023-02-14T00:29:54;13.20;;;6.68;;
25207;SDS011;13153;52.316;21.166;2023-02-14T00:32:22;14.52;;;7.00;;
25207;SDS011;13153;52.316;21.166;2023-02-14T00:34:48;14.30;;;6.55;;
25207;SDS011;13153;52.316;21.166;2023-02-14T00:37:13;13.98;;;6.93;;
25207;SDS011;13153;52.316;21.166;2023-02-14T00:39:39;12.68;;;6.55;;
25207;SDS011;13153;52.316;21.166;2023-02-14T00:42:05;14.85;;;6.40;;
25207;SDS011;13153;52.316;21.166;2023-02-14T00:44:31;14.45;;;6.38;;
25207;SDS011;13153;52.316;21.166;2023-02-14T00:46:56;17.67;;;6.72;;
25207;SDS011;13153;52.316;21.166;2023-02-14T00:49:22;12.98;;;7.05;;
25207;SDS011;13153;52.316;21.166;2023-02-14T00:51:48;15.55;;;7.22;;
25207;SDS011;13153;52.316;21.166;2023-02-14T00:54:14;15.15;;;7.18;;
25207;SDS011;13153;52.316;21.166;2023-02-14T00:56:39;15.70;;;7.30;;
25207;SDS011;13153;52.316;21.166;2023-02-14T00:59:05;17.45;;;7.47;;
25207;SDS011;13153;52.316;21.166;2023-02-14T01:01:31;16.27;;;7.18;;
25207;SDS011;13153;52.316;21.166;2023-02-14T01:03:57;12.82;;;7.20;;
25207;SDS011;13153;52.316;21.166;2023-02-14T01:06:23;16.70;;;8.13;;
25207;SDS011;13153;52.316;21.166;2023-02-14T01:08:49;18.77;;;7.82;;
25207;SDS011;13153;52.316;21.166;2023-02-14T01:11:16;16.48;;;7.85;;
25207;SDS011;13153;52.316;21.166;2023-02-14T01:13:45;18.27;;;7.95;;
25207;SDS011;13153;52.316;21.166;2023-02-14T01:16:15;17.80;;;8.43;;
25207;SDS011;13153;52.316;21.166;2023-02-14T01:18:44;19.83;;;8.32;;
25207;SDS011;13153;52.316;21.166;2023-02-14T01:21:17;15.80;;;8.20;;
25207;SDS011;13153;52.316;21.166;2023-02-14T01:23:47;20.30;;;7.93;;
25207;SDS011;13153;52.316;21.166;2023-02-14T01:26:16;17.90;;;8.13;;
25207;SDS011;13153;52.316;21.166;2023-02-14T01:28:43;17.00;;;8.13;;
25207;SDS011;13153;52.316;21.166;2023-02-14T01:31:18;18.27;;;8.45;;
25207;SDS011;13153;52.316;21.166;2023-02-14T01:33:47;20.00;;;8.40;;
25207;SDS011;13153;52.316;21.166;2023-02-14T01:36:15;16.10;;;8.13;;
25207;SDS011;13153;52.316;21.166;2023-02-14T01:38:52;18.42;;;8.80;;
25207;SDS011;13153;52.316;21.166;2023-02-14T01:41:21;16.55;;;8.40;;
25207;SDS011;13153;52.316;21.166;2023-02-14T01:46:41;16.10;;;8.82;;
25207;SDS011;13153;52.316;21.166;2023-02-14T01:49:13;17.45;;;8.55;;
25207;SDS011;13153;52.316;21.166;2023-02-14T01:51:53;20.17;;;8.70;;
25207;SDS011;13153;52.316;21.166;2023-02-14T01:54:32;17.40;;;8.75;;
25207;SDS011;13153;52.316;21.166;2023-02-14T01:57:06;17.05;;;9.00;;
25207;SDS011;13153;52.316;21.166;2023-02-14T01:59:36;15.32;;;9.32;;
25207;SDS011;13153;52.316;21.166;2023-02-14T02:02:10;24.13;;;9.80;;
25207;SDS011;13153;52.316;21.166;2023-02-14T02:04:38;20.25;;;9.63;;
25207;SDS011;13153;52.316;21.166;2023-02-14T02:07:11;17.83;;;9.00;;
25207;SDS011;13153;52.316;21.166;2023-02-14T02:12:17;20.27;;;10.18;;
25207;SDS011;13153;52.316;21.166;2023-02-14T02:14:44;16.90;;;9.77;;
25207;SDS011;13153;52.316;21.166;2023-02-14T02:17:15;17.95;;;9.55;;
25207;SDS011;13153;52.316;21.166;2023-02-14T02:37:45;17.77;;;10.05;;
25207;SDS011;13153;52.316;21.166;2023-02-14T02:43:52;17.75;;;10.40;;
25207;SDS011;13153;52.316;21.166;2023-02-14T02:49:33;19.67;;;10.73;;
25207;SDS011;13153;52.316;21.166;2023-02-14T02:52:41;20.02;;;10.82;;
25207;SDS011;13153;52.316;21.166;2023-02-14T03:01:23;19.73;;;11.18;;
25207;SDS011;13153;52.316;21.166;2023-02-14T03:03:57;16.83;;;10.05;;
25207;SDS011;13153;52.316;21.166;2023-02-14T03:06:48;21.25;;;10.88;;
25207;SDS011;13153;52.316;21.166;2023-02-14T03:12:03;23.83;;;10.90;;
25207;SDS011;13153;52.316;21.166;2023-02-14T03:20:54;18.98;;;10.48;;
25207;SDS011;13153;52.316;21.166;2023-02-14T03:27:04;20.92;;;10.93;;
25207;SDS011;13153;52.316;21.166;2023-02-14T03:35:08;18.30;;;10.82;;
25207;SDS011;13153;52.316;21.166;2023-02-14T03:41:06;18.48;;;10.52;;
25207;SDS011;13153;52.316;21.166;2023-02-14T03:46:39;19.85;;;10.85;;
25207;SDS011;13153;52.316;21.166;2023-02-14T03:51:46;14.50;;;10.02;;
25207;SDS011;13153;52.316;21.166;2023-02-14T03:54:18;25.50;;;11.38;;
25207;SDS011;13153;52.316;21.166;2023-02-14T03:56:48;23.95;;;11.93;;
25207;SDS011;13153;52.316;21.166;2023-02-14T03:59:28;24.23;;;11.35;;
25207;SDS011;13153;52.316;21.166;2023-02-14T04:02:10;20.00;;;11.25;;
25207;SDS011;13153;52.316;21.166;2023-02-14T04:07:31;21.38;;;11.88;;
25207;SDS011;13153;52.316;21.166;2023-02-14T04:10:18;23.63;;;11.02;;
25207;SDS011;13153;52.316;21.166;2023-02-14T04:12:45;22.45;;;11.05;;
25207;SDS011;13153;52.316;21.166;2023-02-14T04:15:11;21.30;;;10.90;;
25207;SDS011;13153;52.316;21.166;2023-02-14T04:17:39;21.88;;;11.63;;
25207;SDS011;13153;52.316;21.166;2023-02-14T04:20:24;25.88;;;11.95;;
25207;SDS011;13153;52.316;21.166;2023-02-14T04:22:51;18.95;;;11.05;;
25207;SDS011;13153;52.316;21.166;2023-02-14T04:25:17;24.02;;;11.95;;
25207;SDS011;13153;52.316;21.166;2023-02-14T04:27:44;17.58;;;11.38;;
25207;SDS011;13153;52.316;21.166;2023-02-14T04:30:11;19.55;;;11.45;;
25207;SDS011;13153;52.316;21.166;2023-02-14T04:32:38;23.77;;;12.27;;
25207;SDS011;13153;52.316;21.166;2023-02-14T04:35:05;22.20;;;11.90;;
25207;SDS011;13153;52.316;21.166;2023-02-14T04:37:31;23.45;;;12.02;;
25207;SDS011;13153;52.316;21.166;2023-02-14T04:39:57;20.30;;;11.90;;
25207;SDS011;13153;52.316;21.166;2023-02-14T04:42:23;22.08;;;11.70;;
25207;SDS011;13153;52.316;21.166;2023-02-14T04:44:49;20.20;;;11.88;;
25207;SDS011;13153;52.316;21.166;2023-02-14T04:47:15;22.08;;;12.18;;
25207;SDS011;13153;52.316;21.166;2023-02-14T04:49:41;22.33;;;12.05;;
25207;SDS011;13153;52.316;21.166;2023-02-14T04:52:07;20.77;;;11.85;;
25207;SDS011;13153;52.316;21.166;2023-02-14T04:54:33;23.15;;;12.77;;
25207;SDS011;13153;52.316;21.166;2023-02-14T04:56:59;24.20;;;13.57;;
25207;SDS011;13153;52.316;21.166;2023-02-14T04:59:25;22.88;;;13.00;;
25207;SDS011;13153;52.316;21.166;2023-02-14T05:01:51;24.60;;;13.60;;
25207;SDS011;13153;52.316;21.166;2023-02-14T05:04:17;23.20;;;12.60;;
25207;SDS011;13153;52.316;21.166;2023-02-14T05:06:43;27.50;;;13.30;;
25207;SDS011;13153;52.316;21.166;2023-02-14T05:09:09;24.80;;;13.35;;
25207;SDS011;13153;52.316;21.166;2023-02-14T05:11:35;27.08;;;12.68;;
25207;SDS011;13153;52.316;21.166;2023-02-14T05:14:01;29.10;;;13.00;;
25207;SDS011;13153;52.316;21.166;2023-02-14T05:16:27;29.08;;;14.27;;
25207;SDS011;13153;52.316;21.166;2023-02-14T05:18:53;25.27;;;13.60;;
25207;SDS011;13153;52.316;21.166;2023-02-14T05:21:19;29.88;;;14.20;;
25207;SDS011;13153;52.316;21.166;2023-02-14T05:23:45;32.45;;;16.38;;
25207;SDS011;13153;52.316;21.166;2023-02-14T05:26:10;42.13;;;20.60;;
25207;SDS011;13153;52.316;21.166;2023-02-14T05:28:36;30.48;;;14.88;;
25207;SDS011;13153;52.316;21.166;2023-02-14T05:31:04;29.38;;;16.55;;
25207;SDS011;13153;52.316;21.166;2023-02-14T05:33:31;30.77;;;14.20;;
25207;SDS011;13153;52.316;21.166;2023-02-14T05:35:58;25.65;;;14.60;;
25207;SDS011;13153;52.316;21.166;2023-02-14T05:38:27;32.97;;;14.70;;
25207;SDS011;13153;52.316;21.166;2023-02-14T05:40:54;27.70;;;14.32;;
25207;SDS011;13153;52.316;21.166;2023-02-14T05:43:20;28.35;;;14.55;;
25207;SDS011;13153;52.316;21.166;2023-02-14T05:45:46;28.75;;;14.25;;
25207;SDS011;13153;52.316;21.166;2023-02-14T05:48:12;24.42;;;14.70;;
25207;SDS011;13153;52.316;21.166;2023-02-14T05:50:38;26.88;;;14.15;;
25207;SDS011;13153;52.316;21.166;2023-02-14T05:53:06;23.58;;;14.25;;
25207;SDS011;13153;52.316;21.166;2023-02-14T05:55:33;31.33;;;14.75;;
25207;SDS011;13153;52.316;21.166;2023-02-14T05:57:59;25.08;;;13.85;;
25207;SDS011;13153;52.316;21.166;2023-02-14T06:00:25;30.13;;;14.85;;
25207;SDS011;13153;52.316;21.166;2023-02-14T06:02:51;26.83;;;13.77;;
25207;SDS011;13153;52.316;21.166;2023-02-14T06:05:17;27.02;;;13.52;;
25207;SDS011;13153;52.316;21.166;2023-02-14T06:07:44;26.65;;;13.07;;
25207;SDS011;13153;52.316;21.166;2023-02-14T06:10:14;23.70;;;13.40;;
25207;SDS011;13153;52.316;21.166;2023-02-14T06:12:47;30.45;;;14.73;;
25207;SDS011;13153;52.316;21.166;2023-02-14T06:15:14;22.25;;;12.48;;
25207;SDS011;13153;52.316;21.166;2023-02-14T06:17:40;23.02;;;12.80;;
25207;SDS011;13153;52.316;21.166;2023-02-14T06:20:06;24.92;;;13.73;;
25207;SDS011;13153;52.316;21.166;2023-02-14T06:22:37;25.58;;;13.23;;
25207;SDS011;13153;52.316;21.166;2023-02-14T06:25:03;26.88;;;13.50;;
25207;SDS011;13153;52.316;21.166;2023-02-14T06:27:30;24.33;;;12.98;;
25207;SDS011;13153;52.316;21.166;2023-02-14T06:29:57;28.63;;;14.10;;
25207;SDS011;13153;52.316;21.166;2023-02-14T06:32:23;30.38;;;16.20;;
25207;SDS011;13153;52.316;21.166;2023-02-14T06:34:49;28.73;;;14.52;;
25207;SDS011;13153;52.316;21.166;2023-02-14T06:37:15;22.27;;;13.02;;
25207;SDS011;13153;52.316;21.166;2023-02-14T06:39:40;20.65;;;12.35;;
25207;SDS011;13153;52.316;21.166;2023-02-14T06:42:06;20.27;;;12.57;;
25207;SDS011;13153;52.316;21.166;2023-02-14T06:44:32;23.80;;;12.50;;
25207;SDS011;13153;52.316;21.166;2023-02-14T06:46:58;24.38;;;13.05;;
25207;SDS011;13153;52.316;21.166;2023-02-14T06:49:23;23.05;;;12.07;;
25207;SDS011;13153;52.316;21.166;2023-02-14T06:51:49;22.17;;;12.45;;
25207;SDS011;13153;52.316;21.166;2023-02-14T06:54:15;21.35;;;12.30;;
25207;SDS011;13153;52.316;21.166;2023-02-14T06:56:41;29.05;;;13.48;;
25207;SDS011;13153;52.316;21.166;2023-02-14T06:59:07;27.25;;;13.02;;
25207;SDS011;13153;52.316;21.166;2023-02-14T07:01:33;27.92;;;13.00;;
25207;SDS011;13153;52.316;21.166;2023-02-14T07:03:58;21.20;;;12.98;;
25207;SDS011;13153;52.316;21.166;2023-02-14T07:06:24;19.67;;;12.13;;
25207;SDS011;13153;52.316;21.166;2023-02-14T07:08:50;29.33;;;13.48;;
25207;SDS011;13153;52.316;21.166;2023-02-14T07:11:16;23.05;;;13.10;;
25207;SDS011;13153;52.316;21.166;2023-02-14T07:13:41;23.58;;;12.55;;
25207;SDS011;13153;52.316;21.166;2023-02-14T07:16:08;24.20;;;12.70;;
25207;SDS011;13153;52.316;21.166;2023-02-14T07:18:34;24.63;;;12.65;;
25207;SDS011;13153;52.316;21.166;2023-02-14T07:21:00;27.35;;;13.30;;
25207;SDS011;13153;52.316;21.166;2023-02-14T07:23:26;26.70;;;13.60;;
25207;SDS011;13153;52.316;21.166;2023-02-14T07:25:53;24.92;;;13.75;;
25207;SDS011;13153;52.316;21.166;2023-02-14T07:28:19;26.52;;;13.10;;
25207;SDS011;13153;52.316;21.166;2023-02-14T07:30:45;23.63;;;13.07;;
25207;SDS011;13153;52.316;21.166;2023-02-14T07:33:11;22.23;;;12.75;;
25207;SDS011;13153;52.316;21.166;2023-02-14T07:35:37;21.83;;;12.35;;
25207;SDS011;13153;52.316;21.166;2023-02-14T07:38:03;26.17;;;12.50;;
25207;SDS011;13153;52.316;21.166;2023-02-14T07:40:29;27.20;;;13.63;;
25207;SDS011;13153;52.316;21.166;2023-02-14T07:42:55;21.23;;;11.48;;
25207;SDS011;13153;52.316;21.166;2023-02-14T07:45:22;23.05;;;12.43;;
25207;SDS011;13153;52.316;21.166;2023-02-14T07:47:50;25.88;;;13.20;;
25207;SDS011;13153;52.316;21.166;2023-02-14T07:50:19;23.25;;;12.35;;
25207;SDS011;13153;52.316;21.166;2023-02-14T07:52:47;23.92;;;13.38;;
25207;SDS011;13153;52.316;21.166;2023-02-14T07:55:13;23.35;;;12.30;;
25207;SDS011;13153;52.316;21.166;2023-02-14T07:57:40;32.65;;;17.10;;
25207;SDS011;13153;52.316;21.166;2023-02-14T08:00:06;37.20;;;18.58;;
25207;SDS011;13153;52.316;21.166;2023-02-14T08:02:33;24.05;;;13.95;;
25207;SDS011;13153;52.316;21.166;2023-02-14T08:04:59;30.17;;;14.85;;
25207;SDS011;13153;52.316;21.166;2023-02-14T08:07:25;23.25;;;13.57;;
25207;SDS011;13153;52.316;21.166;2023-02-14T08:09:51;28.73;;;13.23;;
25207;SDS011;13153;52.316;21.166;2023-02-14T08:12:17;26.58;;;13.80;;
25207;SDS011;13153;52.316;21.166;2023-02-14T08:15:01;27.38;;;14.75;;
25207;SDS011;13153;52.316;21.166;2023-02-14T08:17:46;26.30;;;13.63;;
25207;SDS011;13153;52.316;21.166;2023-02-14T08:20:12;26.55;;;13.80;;
25207;SDS011;13153;52.316;21.166;2023-02-14T08:22:38;26.20;;;14.25;;
25207;SDS011;13153;52.316;21.166;2023-02-14T08:25:04;27.23;;;14.65;;
25207;SDS011;13153;52.316;21.166;2023-02-14T08:27:30;30.33;;;17.40;;
25207;SDS011;13153;52.316;21.166;2023-02-14T08:29:56;30.85;;;15.15;;
25207;SDS011;13153;52.316;21.166;2023-02-14T08:32:22;26.70;;;14.70;;
25207;SDS011;13153;52.316;21.166;2023-02-14T08:34:47;28.40;;;16.02;;
25207;SDS011;13153;52.316;21.166;2023-02-14T08:37:13;26.75;;;15.30;;
25207;SDS011;13153;52.316;21.166;2023-02-14T08:39:39;26.13;;;15.63;;
25207;SDS011;13153;52.316;21.166;2023-02-14T08:42:05;23.40;;;14.18;;
25207;SDS011;13153;52.316;21.166;2023-02-14T08:44:31;23.92;;;14.27;;
25207;SDS011;13153;52.316;21.166;2023-02-14T08:46:56;26.17;;;15.68;;
25207;SDS011;13153;52.316;21.166;2023-02-14T08:49:22;29.38;;;15.90;;
25207;SDS011;13153;52.316;21.166;2023-02-14T08:51:48;30.48;;;15.30;;
25207;SDS011;13153;52.316;21.166;2023-02-14T08:54:14;28.02;;;14.82;;
25207;SDS011;13153;52.316;21.166;2023-02-14T08:56:40;27.67;;;15.57;;
25207;SDS011;13153;52.316;21.166;2023-02-14T08:59:06;29.60;;;15.43;;
25207;SDS011;13153;52.316;21.166;2023-02-14T09:01:32;28.23;;;15.63;;
25207;SDS011;13153;52.316;21.166;2023-02-14T09:03:58;24.10;;;14.25;;
25207;SDS011;13153;52.316;21.166;2023-02-14T09:06:24;25.35;;;13.88;;
25207;SDS011;13153;52.316;21.166;2023-02-14T09:08:50;24.33;;;13.23;;
25207;SDS011;13153;52.316;21.166;2023-02-14T09:11:18;29.33;;;13.32;;
25207;SDS011;13153;52.316;21.166;2023-02-14T09:13:47;24.73;;;13.98;;
25207;SDS011;13153;52.316;21.166;2023-02-14T09:16:16;26.73;;;13.75;;
25207;SDS011;13153;52.316;21.166;2023-02-14T09:18:43;27.60;;;14.38;;
25207;SDS011;13153;52.316;21.166;2023-02-14T09:21:14;24.95;;;14.07;;
25207;SDS011;13153;52.316;21.166;2023-02-14T09:23:47;25.10;;;14.23;;
25207;SDS011;13153;52.316;21.166;2023-02-14T09:26:13;21.92;;;13.90;;
25207;SDS011;13153;52.316;21.166;2023-02-14T09:28:40;23.45;;;13.50;;
25207;SDS011;13153;52.316;21.166;2023-02-14T09:31:20;23.88;;;14.00;;
25207;SDS011;13153;52.316;21.166;2023-02-14T09:33:48;24.75;;;13.23;;
25207;SDS011;13153;52.316;21.166;2023-02-14T09:36:15;23.35;;;14.07;;
25207;SDS011;13153;52.316;21.166;2023-02-14T09:38:41;23.15;;;13.35;;
25207;SDS011;13153;52.316;21.166;2023-02-14T09:41:08;26.15;;;13.98;;
25207;SDS011;13153;52.316;21.166;2023-02-14T09:43:58;26.90;;;14.60;;
25207;SDS011;13153;52.316;21.166;2023-02-14T09:46:37;27.38;;;14.25;;
25207;SDS011;13153;52.316;21.166;2023-02-14T09:49:13;29.30;;;14.07;;
25207;SDS011;13153;52.316;21.166;2023-02-14T09:51:48;25.97;;;14.87;;
25207;SDS011;13153;52.316;21.166;2023-02-14T09:54:21;24.08;;;14.50;;
25207;SDS011;13153;52.316;21.166;2023-02-14T09:59:44;24.15;;;14.13;;
25207;SDS011;13153;52.316;21.166;2023-02-14T10:05:37;22.33;;;13.48;;
25207;SDS011;13153;52.316;21.166;2023-02-14T10:11:03;27.70;;;15.57;;
25207;SDS011;13153;52.316;21.166;2023-02-14T10:16:32;27.48;;;14.27;;
25207;SDS011;13153;52.316;21.166;2023-02-14T10:19:13;23.80;;;14.07;;
25207;SDS011;13153;52.316;21.166;2023-02-14T10:21:43;26.77;;;14.68;;
25207;SDS011;13153;52.316;21.166;2023-02-14T10:24:26;27.50;;;14.82;;
25207;SDS011;13153;52.316;21.166;2023-02-14T10:27:08;24.35;;;14.48;;
25207;SDS011;13153;52.316;21.166;2023-02-14T10:29:57;26.42;;;14.35;;
25207;SDS011;13153;52.316;21.166;2023-02-14T10:41:30;25.88;;;15.43;;
25207;SDS011;13153;52.316;21.166;2023-02-14T10:46:56;26.52;;;14.68;;
25207;SDS011;13153;52.316;21.166;2023-02-14T10:52:39;27.15;;;15.10;;
25207;SDS011;13153;52.316;21.166;2023-02-14T10:58:19;27.92;;;16.10;;
25207;SDS011;13153;52.316;21.166;2023-02-14T11:00:58;27.38;;;15.82;;
25207;SDS011;13153;52.316;21.166;2023-02-14T11:03:47;27.50;;;16.35;;
25207;SDS011;13153;52.316;21.166;2023-02-14T11:06:27;26.65;;;15.88;;
25207;SDS011;13153;52.316;21.166;2023-02-14T11:08:57;28.08;;;15.05;;
25207;SDS011;13153;52.316;21.166;2023-02-14T11:11:45;24.48;;;14.40;;
25207;SDS011;13153;52.316;21.166;2023-02-14T11:16:57;31.92;;;16.40;;
25207;SDS011;13153;52.316;21.166;2023-02-14T11:19:29;24.92;;;14.27;;
25207;SDS011;13153;52.316;21.166;2023-02-14T11:21:59;24.80;;;14.57;;
25207;SDS011;13153;52.316;21.166;2023-02-14T11:24:30;23.88;;;13.25;;
25207;SDS011;13153;52.316;21.166;2023-02-14T11:26:59;22.00;;;13.38;;
25207;SDS011;13153;52.316;21.166;2023-02-14T11:29:41;20.80;;;13.50;;
25207;SDS011;13153;52.316;21.166;2023-02-14T11:32:23;23.98;;;13.90;;
25207;SDS011;13153;52.316;21.166;2023-02-14T11:34:53;24.92;;;14.55;;
25207;SDS011;13153;52.316;21.166;2023-02-14T11:37:42;25.70;;;14.10;;
25207;SDS011;13153;52.316;21.166;2023-02-14T11:40:25;25.98;;;14.57;;
25207;SDS011;13153;52.316;21.166;2023-02-14T11:45:38;24.55;;;14.88;;
25207;SDS011;13153;52.316;21.166;2023-02-14T11:53:49;23.75;;;13.80;;
25207;SDS011;13153;52.316;21.166;2023-02-14T11:56:21;48.33;;;14.88;;
25207;SDS011;13153;52.316;21.166;2023-02-14T11:58:55;38.10;;;13.98;;
25207;SDS011;13153;52.316;21.166;2023-02-14T12:01:33;70.25;;;17.35;;
25207;SDS011;13153;52.316;21.166;2023-02-14T12:04:06;38.15;;;13.85;;
25207;SDS011;13153;52.316;21.166;2023-02-14T12:06:44;26.88;;;13.80;;
25207;SDS011;13153;52.316;21.166;2023-02-14T12:09:11;24.60;;;13.75;;
25207;SDS011;13153;52.316;21.166;2023-02-14T12:11:56;22.23;;;13.32;;
25207;SDS011;13153;52.316;21.166;2023-02-14T12:14:32;22.40;;;13.30;;
25207;SDS011;13153;52.316;21.166;2023-02-14T12:19:33;23.27;;;13.23;;
25207;SDS011;13153;52.316;21.166;2023-02-14T12:22:23;20.02;;;13.70;;
25207;SDS011;13153;52.316;21.166;2023-02-14T12:30:26;21.98;;;13.32;;
25207;SDS011;13153;52.316;21.166;2023-02-14T12:32:56;23.08;;;13.48;;
25207;SDS011;13153;52.316;21.166;2023-02-14T12:50:52;23.55;;;13.68;;
25207;SDS011;13153;52.316;21.166;2023-02-14T13:11:58;29.60;;;14.70;;
25207;SDS011;13153;52.316;21.166;2023-02-14T13:15:17;24.83;;;14.05;;
25207;SDS011;13153;52.316;21.166;2023-02-14T13:23:24;22.08;;;13.38;;
25207;SDS011;13153;52.316;21.166;2023-02-14T13:26:21;23.63;;;13.75;;
25207;SDS011;13153;52.316;21.166;2023-02-14T13:29:03;24.95;;;13.45;;
25207;SDS011;13153;52.316;21.166;2023-02-14T13:31:37;28.25;;;14.68;;
25207;SDS011;13153;52.316;21.166;2023-02-14T13:34:12;25.42;;;13.50;;
25207;SDS011;13153;52.316;21.166;2023-02-14T13:36:57;25.95;;;14.15;;
25207;SDS011;13153;52.316;21.166;2023-02-14T13:42:04;21.85;;;12.57;;
25207;SDS011;13153;52.316;21.166;2023-02-14T13:44:49;22.65;;;13.02;;
25207;SDS011;13153;52.316;21.166;2023-02-14T13:47:23;23.60;;;13.02;;
25207;SDS011;13153;52.316;21.166;2023-02-14T13:49:58;20.15;;;13.05;;
25207;SDS011;13153;52.316;21.166;2023-02-14T13:52:42;24.83;;;13.25;;
25207;SDS011;13153;52.316;21.166;2023-02-14T13:55:19;24.00;;;13.57;;
25207;SDS011;13153;52.316;21.166;2023-02-14T13:58:06;24.00;;;14.02;;
25207;SDS011;13153;52.316;21.166;2023-02-14T14:00:44;22.38;;;14.30;;
25207;SDS011;13153;52.316;21.166;2023-02-14T14:03:12;23.27;;;13.23;;
25207;SDS011;13153;52.316;21.166;2023-02-14T14:10:49;21.77;;;13.27;;
25207;SDS011;13153;52.316;21.166;2023-02-14T14:18:50;27.67;;;14.10;;
25207;SDS011;13153;52.316;21.166;2023-02-14T14:21:29;25.15;;;13.45;;
25207;SDS011;13153;52.316;21.166;2023-02-14T14:26:58;27.33;;;14.38;;
25207;SDS011;13153;52.316;21.166;2023-02-14T14:29:47;25.67;;;13.80;;
25207;SDS011;13153;52.316;21.166;2023-02-14T14:32:19;22.88;;;14.20;;
25207;SDS011;13153;52.316;21.166;2023-02-14T14:34:54;31.00;;;15.73;;
25207;SDS011;13153;52.316;21.166;2023-02-14T14:37:30;31.02;;;15.93;;
25207;SDS011;13153;52.316;21.166;2023-02-14T14:40:00;28.52;;;16.55;;
25207;SDS011;13153;52.316;21.166;2023-02-14T14:42:33;30.80;;;16.52;;
25207;SDS011;13153;52.316;21.166;2023-02-14T14:45:07;28.55;;;15.23;;
25207;SDS011;13153;52.316;21.166;2023-02-14T14:47:49;29.13;;;16.58;;
25207;SDS011;13153;52.316;21.166;2023-02-14T14:50:30;30.67;;;16.80;;
25207;SDS011;13153;52.316;21.166;2023-02-14T14:53:00;33.22;;;16.70;;
25207;SDS011;13153;52.316;21.166;2023-02-14T14:55:39;30.13;;;16.85;;
25207;SDS011;13153;52.316;21.166;2023-02-14T15:01:13;30.77;;;16.63;;
25207;SDS011;13153;52.316;21.166;2023-02-14T15:04:07;28.40;;;16.48;;
25207;SDS011;13153;52.316;21.166;2023-02-14T15:06:41;35.33;;;17.00;;
25207;SDS011;13153;52.316;21.166;2023-02-14T15:09:13;31.55;;;17.55;;
25207;SDS011;13153;52.316;21.166;2023-02-14T15:11:48;37.88;;;20.65;;
25207;SDS011;13153;52.316;21.166;2023-02-14T15:14:39;33.35;;;19.10;;
25207;SDS011;13153;52.316;21.166;2023-02-14T15:17:18;34.83;;;19.98;;
25207;SDS011;13153;52.316;21.166;2023-02-14T15:19:56;37.65;;;20.75;;
25207;SDS011;13153;52.316;21.166;2023-02-14T15:22:40;35.75;;;19.88;;
25207;SDS011;13153;52.316;21.166;2023-02-14T15:25:10;38.42;;;21.30;;
25207;SDS011;13153;52.316;21.166;2023-02-14T15:27:47;41.92;;;23.98;;
25207;SDS011;13153;52.316;21.166;2023-02-14T15:30:21;39.95;;;23.58;;
25207;SDS011;13153;52.316;21.166;2023-02-14T15:32:59;37.72;;;22.42;;
25207;SDS011;13153;52.316;21.166;2023-02-14T15:35:33;37.25;;;21.95;;
25207;SDS011;13153;52.316;21.166;2023-02-14T15:38:06;36.47;;;21.08;;
25207;SDS011;13153;52.316;21.166;2023-02-14T15:40:37;35.50;;;20.25;;
25207;SDS011;13153;52.316;21.166;2023-02-14T15:45:41;38.92;;;22.90;;
25207;SDS011;13153;52.316;21.166;2023-02-14T15:48:14;36.67;;;22.35;;
25207;SDS011;13153;52.316;21.166;2023-02-14T15:50:49;39.67;;;22.92;;
25207;SDS011;13153;52.316;21.166;2023-02-14T15:55:47;39.70;;;21.48;;
25207;SDS011;13153;52.316;21.166;2023-02-14T15:58:19;39.10;;;21.42;;
25207;SDS011;13153;52.316;21.166;2023-02-14T16:00:50;43.50;;;23.15;;
25207;SDS011;13153;52.316;21.166;2023-02-14T16:03:18;42.50;;;23.00;;
25207;SDS011;13153;52.316;21.166;2023-02-14T16:05:52;41.72;;;22.65;;
25207;SDS011;13153;52.316;21.166;2023-02-14T16:08:24;45.75;;;23.10;;
25207;SDS011;13153;52.316;21.166;2023-02-14T16:11:00;47.78;;;26.95;;
25207;SDS011;13153;52.316;21.166;2023-02-14T16:13:43;52.95;;;28.00;;
25207;SDS011;13153;52.316;21.166;2023-02-14T16:16:11;49.30;;;27.58;;
25207;SDS011;13153;52.316;21.166;2023-02-14T16:21:18;55.03;;;29.88;;
25207;SDS011;13153;52.316;21.166;2023-02-14T16:26:31;65.35;;;33.08;;
25207;SDS011;13153;52.316;21.166;2023-02-14T16:29:03;66.57;;;34.72;;
25207;SDS011;13153;52.316;21.166;2023-02-14T16:31:31;64.35;;;33.38;;
25207;SDS011;13153;52.316;21.166;2023-02-14T16:33:58;63.95;;;34.38;;
25207;SDS011;13153;52.316;21.166;2023-02-14T16:36:30;65.22;;;34.58;;
25207;SDS011;13153;52.316;21.166;2023-02-14T16:39:00;68.30;;;35.17;;
25207;SDS011;13153;52.316;21.166;2023-02-14T16:41:29;67.45;;;34.53;;
25207;SDS011;13153;52.316;21.166;2023-02-14T16:43:58;64.22;;;34.75;;
25207;SDS011;13153;52.316;21.166;2023-02-14T16:46:26;61.25;;;36.00;;
25207;SDS011;13153;52.316;21.166;2023-02-14T16:48:55;67.80;;;36.22;;
25207;SDS011;13153;52.316;21.166;2023-02-14T16:51:24;70.22;;;38.83;;
25207;SDS011;13153;52.316;21.166;2023-02-14T16:53:57;74.97;;;40.23;;
25207;SDS011;13153;52.316;21.166;2023-02-14T16:56:41;88.15;;;44.88;;
25207;SDS011;13153;52.316;21.166;2023-02-14T16:59:14;88.05;;;45.10;;
25207;SDS011;13153;52.316;21.166;2023-02-14T17:01:40;77.93;;;41.80;;
25207;SDS011;13153;52.316;21.166;2023-02-14T17:04:06;82.40;;;42.95;;
25207;SDS011;13153;52.316;21.166;2023-02-14T17:06:32;100.57;;;49.55;;
25207;SDS011;13153;52.316;21.166;2023-02-14T17:09:04;85.35;;;45.40;;
25207;SDS011;13153;52.316;21.166;2023-02-14T17:11:36;90.72;;;43.47;;
25207;SDS011;13153;52.316;21.166;2023-02-14T17:14:07;75.97;;;40.47;;
25207;SDS011;13153;52.316;21.166;2023-02-14T17:16:36;82.15;;;43.42;;
25207;SDS011;13153;52.316;21.166;2023-02-14T17:19:03;87.07;;;43.47;;
25207;SDS011;13153;52.316;21.166;2023-02-14T17:21:29;95.38;;;46.50;;
25207;SDS011;13153;52.316;21.166;2023-02-14T17:23:55;88.35;;;45.75;;
25207;SDS011;13153;52.316;21.166;2023-02-14T17:26:21;89.88;;;44.78;;
25207;SDS011;13153;52.316;21.166;2023-02-14T17:28:47;83.60;;;45.05;;
25207;SDS011;13153;52.316;21.166;2023-02-14T17:31:13;83.13;;;43.58;;
25207;SDS011;13153;52.316;21.166;2023-02-14T17:33:39;78.05;;;41.53;;
25207;SDS011;13153;52.316;21.166;2023-02-14T17:36:06;77.13;;;38.95;;